Sunday, December 17, 2017, 10:06 PM EST
Back to Local

KBFD, Bradford Regional Airport

Location: Cyclone, PA, United States Lat: 41.8
Local Time: 10:06 PM EST ( 3:06 GMT) Lon: -78.633
Time Zone: US/Eastern Elev: 2142 ft

Show me the last for .
Show Decoded

2017-12-17 21:53 METAR KBFD 180253Z AUTO 21003KT 10SM FEW014 BKN075 OVC090 01/M02 A3004 RMK AO2
                 SLP192 T00061022 58007 =
2017-12-17 20:53 METAR KBFD 180153Z AUTO 16003KT 9SM FEW018 OVC090 00/M02 A3006 RMK AO2 SLP200
                 T00001022 =
2017-12-17 19:53 METAR KBFD 180053Z AUTO 15004KT 9SM BKN110 00/M02 A3006 RMK AO2 SLP200 T00001022
                 =
2017-12-17 18:53 METAR KBFD 172353Z AUTO 16004KT 9SM CLR 00/M03 A3006 RMK AO2 SLP201 T00001028
                 10000 21011 58002 =
2017-12-17 17:53 METAR KBFD 172253Z AUTO 14003KT 7SM FEW100 M01/M02 A3008 RMK AO2 SLP208
                 T10061022 =
2017-12-17 16:53 METAR KBFD 172153Z AUTO 00000KT 7SM SCT120 M01/M02 A3009 RMK AO2 SLP210
                 T10061022 =
2017-12-17 15:53 METAR KBFD 172053Z AUTO 15004KT 6SM BR BKN120 M01/M02 A3007 RMK AO2 SLP203
                 T10061022 56012 =
2017-12-17 14:53 METAR KBFD 171953Z AUTO 16004KT 6SM BR BKN120 M01/M02 A3007 RMK AO2 SLP204
                 T10061022 =
2017-12-17 13:53 METAR KBFD 171853Z AUTO 18003KT 5SM BR FEW007 M01/M02 A3009 RMK AO2 SLP212
                 T10061017 =
2017-12-17 13:44 METAR KBFD 171844Z AUTO 15004KT 5SM BR SCT007 M01/M02 A3010 RMK AO2 T10061017 =
2017-12-17 12:53 METAR KBFD 171753Z AUTO VRB04KT 4SM BR BKN005 M01/M02 A3011 RMK AO2 SLP217 I6000
                 T10111017 11011 21028 58015 =
2017-12-17 12:44 METAR KBFD 171744Z AUTO 18003KT 4SM BR OVC005 M01/M02 A3011 RMK AO2 T10111017 =
2017-12-17 11:53 METAR KBFD 171653Z AUTO 13004KT 3SM BR OVC003 M02/M02 A3013 RMK AO2 SLP225
                 T10171022 =
2017-12-17 11:25 METAR KBFD 171625Z AUTO 14004KT 3SM BR OVC003 M02/M02 A3015 RMK AO2 T10171022 =
2017-12-17 11:09 METAR KBFD 171609Z AUTO 15004KT 2 1/2SM BR OVC003 M02/M02 A3016 RMK AO2
                 T10171022 =
2017-12-17 10:53 METAR KBFD 171553Z AUTO 14003KT 2 1/2SM BR OVC002 M02/M02 A3017 RMK AO2 SLP238
                 T10221022 =
2017-12-17 10:23 METAR KBFD 171523Z AUTO 15003KT 2 1/2SM BR OVC003 M02/M03 A3017 RMK AO2
                 T10221028 =
2017-12-17 09:53 METAR KBFD 171453Z AUTO 14003KT 3SM BR OVC003 M02/M03 A3015 RMK AO2 SLP234 I3000
                 T10221028 51004 =
2017-12-17 09:29 METAR KBFD 171429Z AUTO 00000KT 3SM BR BKN003 OVC016 M03/M03 A3015 RMK AO2
                 T10281028 =
2017-12-17 09:21 METAR KBFD 171421Z AUTO 00000KT 2 1/2SM BR BKN002 OVC016 M03/M03 A3015 RMK AO2
                 T10281033 =
2017-12-17 09:10 METAR KBFD 171410Z AUTO 11003KT 2 1/2SM BR SCT002 OVC016 M03/M03 A3015 RMK AO2
                 T10281033 =
2017-12-17 09:04 METAR KBFD 171404Z AUTO 00000KT 1SM BR BKN002 OVC016 M03/M03 A3015 RMK AO2
                 T10281033 =
2017-12-17 08:53 METAR KBFD 171353Z AUTO 00000KT 1/4SM FZFG BKN002 OVC016 M03/M03 A3015 RMK AO2
                 SLP232 T10281028 =
2017-12-17 07:53 METAR KBFD 171253Z AUTO 00000KT M1/4SM FZFG VV002 M03/M03 A3015 RMK AO2 SLP234
                 I1000 T10281028 =
2017-12-17 07:12 METAR KBFD 171212Z AUTO 00000KT 1/4SM FZFG VV002 M03/M03 A3014 RMK AO2 T10281033
                 =
2017-12-17 07:03 METAR KBFD 171203Z AUTO 00000KT 1/2SM FZFG VV002 M03/M03 A3014 RMK AO2 T10281028
                 =
2017-12-17 06:53 METAR KBFD 171153Z AUTO 00000KT 1/4SM FZFG VV002 M03/M03 A3014 RMK AO2 SLP230
                 70006 I6000 T10281028 11017 21033 53011 =
2017-12-17 05:53 METAR KBFD 171053Z AUTO 00000KT 1/4SM FZFG VV002 M03/M03 A3013 RMK AO2 SLP226
                 I1000 T10281028 =
2017-12-17 05:04 METAR KBFD 171004Z AUTO 00000KT 1/4SM FZFG VV002 M03/M03 A3011 RMK AO2 T10281033
                 =
2017-12-17 04:53 METAR KBFD 170953Z AUTO 00000KT 1 3/4SM BR OVC002 M03/M04 A3010 RMK AO2 SLP215
                 T10331039 =
2017-12-17 04:48 METAR KBFD 170948Z AUTO 00000KT 2 1/2SM BR OVC002 M03/M04 A3010 RMK AO2 =
2017-12-17 04:01 METAR KBFD 170901Z AUTO 00000KT 4SM BR BKN003 OVC030 M02/M03 A3010 RMK AO2
                 T10221028 =
2017-12-17 03:53 METAR KBFD 170853Z AUTO 00000KT 4SM BR SCT003 OVC030 M02/M03 A3011 RMK AO2
                 SLP217 T10221028 50007 =
2017-12-17 03:08 METAR KBFD 170808Z AUTO 00000KT 4SM BR FEW004 OVC030 M02/M02 A3012 RMK AO2
                 T10221022 =
2017-12-17 02:53 METAR KBFD 170753Z AUTO 00000KT 4SM BR FEW003 OVC029 M02/M02 A3012 RMK AO2
                 SLP223 T10171022 =
2017-12-17 01:53 METAR KBFD 170653Z AUTO 00000KT 5SM BR OVC029 M02/M02 A3010 RMK AO2 SLP214
                 T10221022 =
2017-12-17 01:12 METAR KBFD 170612Z AUTO 00000KT 6SM BR OVC029 M02/M03 A3008 RMK AO2 T10221028 =
2017-12-17 00:53 METAR KBFD 170553Z AUTO 00000KT 6SM BR OVC030 M02/M03 A3008 RMK AO2 SLP209
                 T10221028 11017 21028 53004 =
2017-12-16 23:53 METAR KBFD 170453Z AUTO 00000KT 6SM BR OVC030 M02/M03 A3008 RMK AO2 SLP209
                 T10221028 410171067 =
2017-12-16 22:53 METAR KBFD 170353Z AUTO 00000KT 6SM BR FEW004 FEW027 OVC055 M02/M03 A3007 RMK
                 AO2 SLP206 T10221028 =
2017-12-16 22:48 METAR KBFD 170348Z AUTO 00000KT 6SM BR FEW004 SCT026 OVC055 M02/M03 A3007 RMK
                 AO2 =
2017-12-16 22:36 METAR KBFD 170336Z AUTO 00000KT 6SM BR SCT003 BKN027 OVC050 M02/M03 A3007 RMK
                 AO2 T10221028 =

Support USWX by starting your Amazon purchase here.